X  Close Metar Aviation Weather Data     KPCW Carl R Keller Field
Temperature
68°F Temperature
52°F Dewpoint
56% Humidity



Wind
7 MPH
11 KM/H
3 M/S
6 KTS



100°
E
Current Conditions

Mostly Cloudy Mostly Cloudy
Pressure 1009.82 (hPa) - 29.82 (inHg)
Visibility 10 (mile) - 16.1 (km)
Airport
Airport-code KPCW

Location: Carl R Keller Field
Distance: 8 (mi)

Metar:
KPCW 250115Z AUTO 10006KT 10SM BKN070 20/11 A2982 RMK AO2

Time: 24-05-2024 9:15 pm EDT